createdAt,value
2022-07-30T00:03:15.809Z,9.23
2022-07-30T00:08:17.460Z,5.30
2022-07-30T00:13:19.075Z,6.22
2022-07-30T00:18:20.689Z,4.72
2022-07-30T00:23:24.144Z,4.10
2022-07-30T00:28:25.750Z,4.53
2022-07-30T00:33:27.397Z,4.15
2022-07-30T00:38:28.975Z,4.63
2022-07-30T00:43:30.563Z,4.00
2022-07-30T00:48:32.230Z,4.75
2022-07-30T00:53:34.661Z,4.32
2022-07-30T00:58:36.314Z,3.90
2022-07-30T01:03:38.036Z,5.28
2022-07-30T01:08:39.663Z,4.22
2022-07-30T01:13:41.404Z,4.80
2022-07-30T01:19:03.718Z,7.95
2022-07-30T01:24:19.465Z,3.72
2022-07-30T01:29:22.953Z,4.40
2022-07-30T01:34:34.292Z,5.60
2022-07-30T01:39:36.659Z,4.70
2022-07-30T01:44:39.402Z,4.82
2022-07-30T01:49:41.753Z,5.10
2022-07-30T01:54:45.713Z,5.07
2022-07-30T01:59:49.587Z,4.57
2022-07-30T02:04:53.553Z,4.60
2022-07-30T02:10:17.837Z,4.53
2022-07-30T02:15:35.069Z,4.75
2022-07-30T02:20:38.459Z,4.90
2022-07-30T02:25:50.489Z,4.47
2022-07-30T02:30:58.139Z,4.43
2022-07-30T02:36:00.472Z,4.82
2022-07-30T02:41:02.846Z,4.50
2022-07-30T02:46:04.812Z,4.63
2022-07-30T02:51:28.016Z,5.45
2022-07-30T02:56:30.383Z,5.43
2022-07-30T03:01:33.596Z,4.10
2022-07-30T03:06:35.539Z,5.00
2022-07-30T03:11:38.579Z,5.50
2022-07-30T03:16:44.163Z,4.97
2022-07-30T03:21:46.929Z,5.05
2022-07-30T03:26:49.169Z,4.70
2022-07-30T03:31:50.937Z,5.32
2022-07-30T03:36:54.825Z,5.05
2022-07-30T03:41:56.719Z,4.78
2022-07-30T03:47:00.963Z,4.80
2022-07-30T03:52:04.687Z,4.35
2022-07-30T03:57:06.593Z,4.57
2022-07-30T04:02:14.955Z,5.25
2022-07-30T04:07:35.250Z,5.38
2022-07-30T04:12:46.612Z,5.82
2022-07-30T04:17:54.181Z,4.72
2022-07-30T04:22:57.328Z,5.72
2022-07-30T04:28:03.327Z,5.65
2022-07-30T04:33:08.280Z,5.63
2022-07-30T04:38:26.736Z,6.70
2022-07-30T04:43:28.399Z,5.85
2022-07-30T04:48:30.449Z,5.72
2022-07-30T04:53:53.721Z,6.75
2022-07-30T04:58:56.291Z,7.35
2022-07-30T05:04:00.342Z,6.32
2022-07-30T05:09:02.340Z,6.05
2022-07-30T05:14:03.935Z,5.05
2022-07-30T05:19:07.575Z,6.63
2022-07-30T05:24:10.697Z,5.10
2022-07-30T05:29:17.257Z,5.43
2022-07-30T05:34:28.850Z,8.15
2022-07-30T05:39:30.577Z,8.63
2022-07-30T05:44:52.135Z,7.25
2022-07-30T05:49:53.777Z,7.53
2022-07-30T05:54:55.371Z,7.78
2022-07-30T06:00:00.986Z,5.53
2022-07-30T06:05:18.225Z,6.20
2022-07-30T06:10:20.436Z,7.15
2022-07-30T06:15:25.939Z,5.45
2022-07-30T06:20:28.532Z,6.10
2022-07-30T06:26:02.735Z,7.15
2022-07-30T06:31:04.618Z,8.50
2022-07-30T06:36:06.752Z,8.75
2022-07-30T06:41:20.035Z,7.70
2022-07-30T06:46:27.747Z,5.93
2022-07-30T06:51:29.408Z,5.90
2022-07-30T06:56:31.085Z,6.10
2022-07-30T07:01:38.721Z,5.75
2022-07-30T07:06:40.937Z,5.43
2022-07-30T07:11:44.687Z,6.53
2022-07-30T07:16:50.603Z,5.78
2022-07-30T07:22:13.550Z,6.72
2022-07-30T07:27:16.064Z,6.32
2022-07-30T07:32:20.468Z,5.85
2022-07-30T07:37:22.951Z,6.28
2022-07-30T07:42:26.000Z,6.00
2022-07-30T07:47:28.708Z,7.93
2022-07-30T07:52:46.883Z,8.00
2022-07-30T07:57:49.221Z,8.55
2022-07-30T08:02:51.389Z,6.55
2022-07-30T08:07:53.590Z,6.78
2022-07-30T08:13:48.661Z,6.85
2022-07-30T08:18:58.122Z,5.95
2022-07-30T08:24:08.814Z,7.88
2022-07-30T08:29:14.213Z,5.97
2022-07-30T08:34:20.397Z,6.18
2022-07-30T08:39:28.274Z,6.35
2022-07-30T08:44:31.102Z,8.15
2022-07-30T08:49:33.731Z,6.35
2022-07-30T08:54:35.467Z,8.60
2022-07-30T08:59:59.500Z,7.00
2022-07-30T09:05:02.556Z,10.88
2022-07-30T09:10:08.730Z,13.23
2022-07-30T09:15:15.928Z,9.55
2022-07-30T09:20:18.948Z,6.93
2022-07-30T09:25:53.034Z,13.40
2022-07-30T09:31:13.658Z,8.48
2022-07-30T09:36:34.077Z,6.05
2022-07-30T09:41:54.713Z,5.85
2022-07-30T09:46:57.601Z,7.65
2022-07-30T09:52:02.952Z,7.38
2022-07-30T10:02:35.922Z,6.82
2022-07-30T10:08:18.955Z,7.05
2022-07-30T10:13:22.032Z,6.53
2022-07-30T10:18:25.266Z,5.82
2022-07-30T10:23:32.670Z,6.28
2022-07-30T10:28:54.437Z,5.65
2022-07-30T10:33:57.282Z,6.00
2022-07-30T10:39:00.495Z,6.72
2022-07-30T10:44:29.583Z,6.57
2022-07-30T10:49:35.243Z,7.38
2022-07-30T10:54:47.444Z,7.28
2022-07-30T10:59:56.077Z,6.85
2022-07-30T11:05:27.277Z,7.13
2022-07-30T11:10:43.905Z,6.55
2022-07-30T11:15:54.524Z,7.13
2022-07-30T11:21:15.014Z,6.70
2022-07-30T11:26:50.081Z,6.82
2022-07-30T11:31:56.802Z,6.55
2022-07-30T11:37:19.286Z,7.03
2022-07-30T11:42:31.305Z,5.80
2022-07-30T11:47:33.010Z,5.10
2022-07-30T11:52:34.726Z,5.18
2022-07-30T11:57:40.588Z,6.25
2022-07-30T12:02:42.289Z,6.55
2022-07-30T12:07:43.966Z,5.63
2022-07-30T12:12:46.783Z,5.75
2022-07-30T12:17:51.375Z,6.18
2022-07-30T12:22:58.563Z,5.93
2022-07-30T12:28:00.488Z,4.25
2022-07-30T12:33:02.108Z,7.80
2022-07-30T12:38:04.734Z,5.78
2022-07-30T12:43:06.354Z,4.90
2022-07-30T12:48:15.535Z,5.10
2022-07-30T12:53:17.329Z,6.15
2022-07-30T12:58:18.919Z,6.45
2022-07-30T13:03:27.579Z,4.88
2022-07-30T13:08:53.169Z,6.45
2022-07-30T13:13:54.797Z,6.13
2022-07-30T13:18:56.408Z,5.65
2022-07-30T13:23:58.047Z,5.60
2022-07-30T13:29:01.947Z,5.00
2022-07-30T13:34:04.802Z,5.00
2022-07-30T13:39:06.579Z,10.15
2022-07-30T13:44:08.223Z,4.55
2022-07-30T13:49:10.946Z,3.83
2022-07-30T13:54:13.940Z,6.07
2022-07-30T13:59:15.665Z,5.57
2022-07-30T14:04:17.300Z,8.75
2022-07-30T14:09:18.938Z,5.93
2022-07-30T14:14:22.426Z,5.75
2022-07-30T14:19:24.685Z,6.15
2022-07-30T14:24:26.321Z,5.40
2022-07-30T14:29:28.283Z,4.90
2022-07-30T14:34:29.875Z,5.13
2022-07-30T14:39:31.565Z,3.67
2022-07-30T14:44:33.384Z,3.72
2022-07-30T14:49:35.226Z,2.85
2022-07-30T14:54:36.862Z,2.70
2022-07-30T14:59:38.491Z,3.28
2022-07-30T15:04:40.106Z,3.00
2022-07-30T15:09:41.718Z,3.33
2022-07-30T15:14:43.824Z,3.28
2022-07-30T15:19:50.244Z,2.38
2022-07-30T15:24:52.950Z,3.63
2022-07-30T15:29:54.692Z,2.88
2022-07-30T15:34:56.454Z,1.90
2022-07-30T15:39:58.487Z,3.08
2022-07-30T15:45:18.853Z,2.47
2022-07-30T15:50:20.682Z,3.22
2022-07-30T15:55:22.338Z,4.32
2022-07-30T16:00:24.066Z,2.22
2022-07-30T16:05:25.782Z,3.22
2022-07-30T16:10:29.633Z,3.45
2022-07-30T16:15:34.542Z,5.03
2022-07-30T16:20:36.245Z,2.20
2022-07-30T16:25:38.340Z,2.60
2022-07-30T16:30:50.779Z,2.47
2022-07-30T16:35:52.783Z,2.10
2022-07-30T16:40:54.479Z,2.22
2022-07-30T16:45:56.062Z,2.25
2022-07-30T16:50:57.690Z,2.30
2022-07-30T16:55:59.478Z,3.63
2022-07-30T17:01:01.140Z,2.08
2022-07-30T17:06:02.859Z,1.88
2022-07-30T17:11:09.068Z,2.47
2022-07-30T17:16:11.992Z,2.65
2022-07-30T17:21:14.212Z,2.33
2022-07-30T17:26:15.920Z,3.58
2022-07-30T17:31:17.629Z,2.85
2022-07-30T17:36:19.917Z,2.85
2022-07-30T17:41:21.519Z,4.80
2022-07-30T17:46:23.350Z,3.95
2022-07-30T17:51:24.978Z,3.35
2022-07-30T17:56:27.446Z,2.55
2022-07-30T18:01:29.816Z,6.82
2022-07-30T18:06:31.590Z,7.78
2022-07-30T18:11:33.420Z,5.68
2022-07-30T18:16:35.068Z,5.72
2022-07-30T18:21:38.517Z,7.13
2022-07-30T18:26:40.428Z,5.85
2022-07-30T18:31:42.138Z,5.40
2022-07-30T18:36:43.793Z,6.97
2022-07-30T18:41:45.351Z,6.05
2022-07-30T18:46:46.916Z,7.00
2022-07-30T18:51:48.490Z,5.25
2022-07-30T18:56:51.524Z,5.13
2022-07-30T19:01:54.241Z,6.97
2022-07-30T19:06:55.808Z,6.88
2022-07-30T19:11:57.411Z,5.78
2022-07-30T19:16:59.404Z,6.90
2022-07-30T19:22:02.065Z,7.85
2022-07-30T19:27:04.521Z,8.70
2022-07-30T19:32:06.730Z,8.75
2022-07-30T19:37:08.333Z,6.72
2022-07-30T19:42:10.002Z,6.15
2022-07-30T19:47:11.983Z,6.57
2022-07-30T19:52:23.222Z,6.80
2022-07-30T19:57:53.221Z,6.57
2022-07-30T20:02:49.113Z,6.43
2022-07-30T20:07:50.876Z,7.93
2022-07-30T20:12:56.044Z,5.75
2022-07-30T20:17:58.601Z,6.03
2022-07-30T20:23:00.240Z,6.78
2022-07-30T20:28:01.947Z,5.97
2022-07-30T20:33:04.379Z,5.90
2022-07-30T20:38:10.195Z,6.38
2022-07-30T20:43:12.091Z,6.68
2022-07-30T20:48:17.091Z,7.07
2022-07-30T20:53:33.714Z,9.98
2022-07-30T20:58:38.715Z,7.45
2022-07-30T21:03:43.460Z,6.72
2022-07-30T21:08:49.517Z,7.65
2022-07-30T21:13:51.631Z,7.28
2022-07-30T21:18:53.589Z,7.40
2022-07-30T21:23:55.282Z,8.00
2022-07-30T21:28:56.914Z,6.78
2022-07-30T21:33:59.455Z,6.43
2022-07-30T21:39:01.203Z,7.70
2022-07-30T21:44:04.580Z,7.88
2022-07-30T21:49:07.817Z,7.10
2022-07-30T21:54:09.484Z,6.28
2022-07-30T21:59:11.520Z,6.38
2022-07-30T22:04:13.153Z,9.32
2022-07-30T22:09:34.242Z,6.50
2022-07-30T22:14:36.105Z,6.82
2022-07-30T22:19:38.054Z,6.47
2022-07-30T22:24:39.678Z,6.60
2022-07-30T22:29:42.532Z,7.35
2022-07-30T22:34:44.873Z,6.20
2022-07-30T22:39:51.980Z,10.52
2022-07-30T22:44:55.846Z,6.20
2022-07-30T22:49:59.298Z,7.15
2022-07-30T22:55:09.186Z,6.05
2022-07-30T23:00:14.134Z,6.20
2022-07-30T23:05:28.821Z,7.22
2022-07-30T23:10:31.127Z,5.63
2022-07-30T23:15:34.567Z,6.63
2022-07-30T23:20:37.725Z,5.95
2022-07-30T23:25:39.485Z,6.90
2022-07-30T23:30:41.189Z,6.45
2022-07-30T23:35:43.688Z,6.45
2022-07-30T23:40:45.322Z,5.82
2022-07-30T23:45:46.916Z,6.25
2022-07-30T23:50:48.752Z,6.28
2022-07-30T23:55:51.246Z,6.40
